sensor_id;sensor_type;location;lat;lon;timestamp;pressure;altitude;pressure_sealevel;temperature;humidity
24280;BME280;12395;42.808;23.408;2023-03-18T00:00:26;95302.72;;;-0.92;100.00
24280;BME280;12395;42.808;23.408;2023-03-18T00:02:51;95298.81;;;-0.86;100.00
24280;BME280;12395;42.808;23.408;2023-03-18T00:05:17;95296.47;;;-1.10;100.00
24280;BME280;12395;42.808;23.408;2023-03-18T00:07:43;95293.44;;;-1.15;100.00
24280;BME280;12395;42.808;23.408;2023-03-18T00:10:10;95296.72;;;-1.13;100.00
24280;BME280;12395;42.808;23.408;2023-03-18T00:12:36;95296.84;;;-1.14;100.00
24280;BME280;12395;42.808;23.408;2023-03-18T00:15:03;95297.41;;;-1.11;100.00
24280;BME280;12395;42.808;23.408;2023-03-18T00:17:30;95285.50;;;-1.13;100.00
24280;BME280;12395;42.808;23.408;2023-03-18T00:19:55;95286.09;;;-1.10;100.00
24280;BME280;12395;42.808;23.408;2023-03-18T00:22:20;95284.09;;;-1.17;100.00
24280;BME280;12395;42.808;23.408;2023-03-18T00:24:46;95285.59;;;-1.24;100.00
24280;BME280;12395;42.808;23.408;2023-03-18T00:27:13;95287.41;;;-1.15;100.00
24280;BME280;12395;42.808;23.408;2023-03-18T00:29:38;95274.72;;;-1.09;100.00
24280;BME280;12395;42.808;23.408;2023-03-18T00:32:04;95259.31;;;-1.21;100.00
24280;BME280;12395;42.808;23.408;2023-03-18T00:34:29;95270.22;;;-1.27;100.00
24280;BME280;12395;42.808;23.408;2023-03-18T00:36:54;95270.75;;;-1.33;100.00
24280;BME280;12395;42.808;23.408;2023-03-18T00:39:21;95264.56;;;-1.32;100.00
24280;BME280;12395;42.808;23.408;2023-03-18T00:41:50;95256.53;;;-1.29;100.00
24280;BME280;12395;42.808;23.408;2023-03-18T00:44:16;95263.13;;;-1.25;100.00
24280;BME280;12395;42.808;23.408;2023-03-18T00:46:42;95252.28;;;-1.30;100.00
24280;BME280;12395;42.808;23.408;2023-03-18T00:49:07;95242.16;;;-1.33;100.00
24280;BME280;12395;42.808;23.408;2023-03-18T00:51:33;95242.16;;;-1.33;100.00
24280;BME280;12395;42.808;23.408;2023-03-18T00:53:59;95250.41;;;-1.28;100.00
24280;BME280;12395;42.808;23.408;2023-03-18T00:56:27;95250.28;;;-1.27;100.00
24280;BME280;12395;42.808;23.408;2023-03-18T00:58:53;95249.50;;;-1.38;100.00
24280;BME280;12395;42.808;23.408;2023-03-18T01:01:19;95242.69;;;-1.39;100.00
24280;BME280;12395;42.808;23.408;2023-03-18T01:03:45;95244.91;;;-1.35;100.00
24280;BME280;12395;42.808;23.408;2023-03-18T01:06:12;95245.59;;;-1.33;100.00
24280;BME280;12395;42.808;23.408;2023-03-18T01:08:38;95238.41;;;-1.40;100.00
24280;BME280;12395;42.808;23.408;2023-03-18T01:11:04;95243.59;;;-1.40;100.00
24280;BME280;12395;42.808;23.408;2023-03-18T01:13:29;95233.50;;;-1.43;100.00
24280;BME280;12395;42.808;23.408;2023-03-18T01:15:54;95237.41;;;-1.49;100.00
24280;BME280;12395;42.808;23.408;2023-03-18T01:18:20;95241.75;;;-1.49;100.00
24280;BME280;12395;42.808;23.408;2023-03-18T01:20:47;95240.00;;;-1.49;100.00
24280;BME280;12395;42.808;23.408;2023-03-18T01:23:13;95234.25;;;-1.52;100.00
24280;BME280;12395;42.808;23.408;2023-03-18T01:25:39;95228.78;;;-1.49;100.00
24280;BME280;12395;42.808;23.408;2023-03-18T01:28:04;95226.75;;;-1.46;100.00
24280;BME280;12395;42.808;23.408;2023-03-18T01:30:30;95231.59;;;-1.41;100.00
24280;BME280;12395;42.808;23.408;2023-03-18T01:32:56;95234.81;;;-1.49;100.00
24280;BME280;12395;42.808;23.408;2023-03-18T01:35:22;95220.97;;;-1.49;100.00
24280;BME280;12395;42.808;23.408;2023-03-18T01:37:48;95234.97;;;-1.41;100.00
24280;BME280;12395;42.808;23.408;2023-03-18T01:40:13;95228.28;;;-1.43;100.00
24280;BME280;12395;42.808;23.408;2023-03-18T01:42:40;95230.47;;;-1.39;100.00
24280;BME280;12395;42.808;23.408;2023-03-18T01:45:19;95228.47;;;-1.35;100.00
24280;BME280;12395;42.808;23.408;2023-03-18T01:47:45;95211.69;;;-1.52;100.00
24280;BME280;12395;42.808;23.408;2023-03-18T01:50:12;95219.91;;;-1.47;100.00
24280;BME280;12395;42.808;23.408;2023-03-18T01:52:38;95213.19;;;-1.49;100.00
24280;BME280;12395;42.808;23.408;2023-03-18T01:55:11;95216.47;;;-1.47;100.00
24280;BME280;12395;42.808;23.408;2023-03-18T01:57:38;95206.69;;;-1.44;100.00
24280;BME280;12395;42.808;23.408;2023-03-18T02:00:07;95205.22;;;-1.58;100.00
24280;BME280;12395;42.808;23.408;2023-03-18T02:02:35;95202.88;;;-1.61;100.00
24280;BME280;12395;42.808;23.408;2023-03-18T02:05:01;95206.41;;;-1.62;100.00
24280;BME280;12395;42.808;23.408;2023-03-18T02:07:28;95214.53;;;-1.55;100.00
24280;BME280;12395;42.808;23.408;2023-03-18T02:09:55;95209.91;;;-1.51;100.00
24280;BME280;12395;42.808;23.408;2023-03-18T02:12:23;95215.72;;;-1.59;100.00
24280;BME280;12395;42.808;23.408;2023-03-18T02:14:48;95213.75;;;-1.67;100.00
24280;BME280;12395;42.808;23.408;2023-03-18T02:17:16;95213.69;;;-1.76;100.00
24280;BME280;12395;42.808;23.408;2023-03-18T02:20:32;95205.59;;;-1.83;100.00
24280;BME280;12395;42.808;23.408;2023-03-18T02:22:33;95209.56;;;-1.79;100.00
24280;BME280;12395;42.808;23.408;2023-03-18T02:27:32;95215.22;;;-1.74;100.00
24280;BME280;12395;42.808;23.408;2023-03-18T02:30:00;95208.81;;;-1.70;100.00
24280;BME280;12395;42.808;23.408;2023-03-18T02:32:27;95203.25;;;-1.65;100.00
24280;BME280;12395;42.808;23.408;2023-03-18T02:34:54;95203.81;;;-1.62;100.00
24280;BME280;12395;42.808;23.408;2023-03-18T02:37:20;95200.75;;;-1.67;100.00
24280;BME280;12395;42.808;23.408;2023-03-18T02:39:45;95202.66;;;-1.69;100.00
24280;BME280;12395;42.808;23.408;2023-03-18T02:42:11;95202.19;;;-1.63;100.00
24280;BME280;12395;42.808;23.408;2023-03-18T02:44:42;95217.19;;;-1.66;100.00
24280;BME280;12395;42.808;23.408;2023-03-18T02:47:12;95204.28;;;-1.57;100.00
24280;BME280;12395;42.808;23.408;2023-03-18T02:49:38;95199.78;;;-1.54;100.00
24280;BME280;12395;42.808;23.408;2023-03-18T02:52:04;95212.63;;;-1.53;100.00
24280;BME280;12395;42.808;23.408;2023-03-18T02:54:30;95207.66;;;-1.56;100.00
24280;BME280;12395;42.808;23.408;2023-03-18T02:56:55;95204.56;;;-1.71;100.00
24280;BME280;12395;42.808;23.408;2023-03-18T02:59:21;95204.56;;;-1.71;100.00
24280;BME280;12395;42.808;23.408;2023-03-18T03:01:48;95210.28;;;-1.77;100.00
24280;BME280;12395;42.808;23.408;2023-03-18T03:04:14;95204.50;;;-1.80;100.00
24280;BME280;12395;42.808;23.408;2023-03-18T03:06:40;95200.84;;;-1.78;100.00
24280;BME280;12395;42.808;23.408;2023-03-18T03:09:07;95204.56;;;-1.71;100.00
24280;BME280;12395;42.808;23.408;2023-03-18T03:11:33;95206.22;;;-1.70;100.00
24280;BME280;12395;42.808;23.408;2023-03-18T03:13:58;95213.88;;;-1.68;100.00
24280;BME280;12395;42.808;23.408;2023-03-18T03:16:23;95202.03;;;-1.82;100.00
24280;BME280;12395;42.808;23.408;2023-03-18T03:18:49;95203.00;;;-1.83;100.00
24280;BME280;12395;42.808;23.408;2023-03-18T03:21:14;95211.97;;;-1.87;100.00
24280;BME280;12395;42.808;23.408;2023-03-18T03:23:41;95207.28;;;-1.93;100.00
24280;BME280;12395;42.808;23.408;2023-03-18T03:26:06;95219.50;;;-1.84;100.00
24280;BME280;12395;42.808;23.408;2023-03-18T03:28:32;95216.28;;;-1.76;100.00
24280;BME280;12395;42.808;23.408;2023-03-18T03:30:58;95226.91;;;-1.79;100.00
24280;BME280;12395;42.808;23.408;2023-03-18T03:33:23;95221.31;;;-1.84;100.00
24280;BME280;12395;42.808;23.408;2023-03-18T03:35:49;95225.19;;;-1.90;100.00
24280;BME280;12395;42.808;23.408;2023-03-18T03:38:15;95221.66;;;-1.89;100.00
24280;BME280;12395;42.808;23.408;2023-03-18T03:40:40;95227.09;;;-1.92;100.00
24280;BME280;12395;42.808;23.408;2023-03-18T03:43:06;95222.91;;;-2.04;100.00
24280;BME280;12395;42.808;23.408;2023-03-18T03:45:31;95226.69;;;-2.08;100.00
24280;BME280;12395;42.808;23.408;2023-03-18T03:47:57;95221.41;;;-2.17;100.00
24280;BME280;12395;42.808;23.408;2023-03-18T03:50:23;95222.75;;;-2.23;100.00
24280;BME280;12395;42.808;23.408;2023-03-18T03:52:48;95228.97;;;-2.14;100.00
24280;BME280;12395;42.808;23.408;2023-03-18T03:55:15;95224.22;;;-2.09;100.00
24280;BME280;12395;42.808;23.408;2023-03-18T03:57:41;95232.63;;;-2.17;100.00
24280;BME280;12395;42.808;23.408;2023-03-18T04:00:08;95229.66;;;-2.12;100.00
24280;BME280;12395;42.808;23.408;2023-03-18T04:02:37;95229.31;;;-2.19;100.00
24280;BME280;12395;42.808;23.408;2023-03-18T04:05:02;95234.19;;;-2.25;100.00
24280;BME280;12395;42.808;23.408;2023-03-18T04:07:28;95230.63;;;-2.24;100.00
24280;BME280;12395;42.808;23.408;2023-03-18T04:09:53;95240.53;;;-2.18;100.00
24280;BME280;12395;42.808;23.408;2023-03-18T04:12:19;95243.22;;;-2.20;100.00
24280;BME280;12395;42.808;23.408;2023-03-18T04:14:45;95235.72;;;-2.23;100.00
24280;BME280;12395;42.808;23.408;2023-03-18T04:17:11;95241.84;;;-2.24;100.00
24280;BME280;12395;42.808;23.408;2023-03-18T04:19:36;95245.81;;;-2.20;100.00
24280;BME280;12395;42.808;23.408;2023-03-18T04:22:03;95244.63;;;-2.16;100.00
24280;BME280;12395;42.808;23.408;2023-03-18T04:24:28;95253.25;;;-2.15;100.00
24280;BME280;12395;42.808;23.408;2023-03-18T04:26:53;95255.41;;;-2.20;100.00
24280;BME280;12395;42.808;23.408;2023-03-18T04:29:19;95261.19;;;-2.28;100.00
24280;BME280;12395;42.808;23.408;2023-03-18T04:31:44;95256.47;;;-2.23;100.00
24280;BME280;12395;42.808;23.408;2023-03-18T04:34:09;95260.69;;;-2.22;100.00
24280;BME280;12395;42.808;23.408;2023-03-18T04:36:35;95252.41;;;-2.16;100.00
24280;BME280;12395;42.808;23.408;2023-03-18T04:39:00;95261.25;;;-2.07;100.00
24280;BME280;12395;42.808;23.408;2023-03-18T04:41:25;95263.28;;;-2.11;100.00
24280;BME280;12395;42.808;23.408;2023-03-18T04:43:50;95267.41;;;-2.08;100.00
24280;BME280;12395;42.808;23.408;2023-03-18T04:46:16;95269.97;;;-1.97;100.00
24280;BME280;12395;42.808;23.408;2023-03-18T04:48:41;95263.41;;;-1.81;100.00
24280;BME280;12395;42.808;23.408;2023-03-18T04:51:07;95274.00;;;-1.73;100.00
24280;BME280;12395;42.808;23.408;2023-03-18T04:53:33;95272.09;;;-1.71;100.00
24280;BME280;12395;42.808;23.408;2023-03-18T04:55:59;95267.59;;;-1.69;100.00
24280;BME280;12395;42.808;23.408;2023-03-18T04:58:24;95261.53;;;-1.58;100.00
24280;BME280;12395;42.808;23.408;2023-03-18T05:00:50;95267.31;;;-1.54;100.00
24280;BME280;12395;42.808;23.408;2023-03-18T05:03:15;95265.84;;;-1.47;100.00
24280;BME280;12395;42.808;23.408;2023-03-18T05:05:40;95272.19;;;-1.40;100.00
24280;BME280;12395;42.808;23.408;2023-03-18T05:08:06;95266.25;;;-1.31;100.00
24280;BME280;12395;42.808;23.408;2023-03-18T05:10:31;95265.28;;;-1.30;100.00
24280;BME280;12395;42.808;23.408;2023-03-18T05:12:57;95259.84;;;-1.27;100.00
24280;BME280;12395;42.808;23.408;2023-03-18T05:15:22;95257.94;;;-1.25;100.00
24280;BME280;12395;42.808;23.408;2023-03-18T05:17:47;95270.69;;;-1.22;100.00
24280;BME280;12395;42.808;23.408;2023-03-18T05:20:13;95274.09;;;-1.22;100.00
24280;BME280;12395;42.808;23.408;2023-03-18T05:22:38;95270.72;;;-1.13;100.00
24280;BME280;12395;42.808;23.408;2023-03-18T05:25:04;95279.53;;;-1.04;100.00
24280;BME280;12395;42.808;23.408;2023-03-18T05:27:30;95275.34;;;-0.96;100.00
24280;BME280;12395;42.808;23.408;2023-03-18T05:29:55;95282.25;;;-0.85;100.00
24280;BME280;12395;42.808;23.408;2023-03-18T05:32:21;95290.34;;;-0.79;100.00
24280;BME280;12395;42.808;23.408;2023-03-18T05:34:46;95288.13;;;-0.62;100.00
24280;BME280;12395;42.808;23.408;2023-03-18T05:37:12;95290.22;;;-0.47;100.00
24280;BME280;12395;42.808;23.408;2023-03-18T05:39:37;95293.50;;;-0.45;100.00
24280;BME280;12395;42.808;23.408;2023-03-18T05:42:03;95293.72;;;-0.27;100.00
24280;BME280;12395;42.808;23.408;2023-03-18T05:44:29;95291.41;;;-0.21;100.00
24280;BME280;12395;42.808;23.408;2023-03-18T05:46:54;95291.31;;;-0.10;100.00
24280;BME280;12395;42.808;23.408;2023-03-18T05:49:20;95290.78;;;0.16;100.00
24280;BME280;12395;42.808;23.408;2023-03-18T05:51:47;95291.94;;;0.42;100.00
24280;BME280;12395;42.808;23.408;2023-03-18T05:54:13;95297.00;;;0.62;100.00
24280;BME280;12395;42.808;23.408;2023-03-18T05:56:40;95297.97;;;0.81;100.00
24280;BME280;12395;42.808;23.408;2023-03-18T05:59:07;95296.69;;;0.94;100.00
24280;BME280;12395;42.808;23.408;2023-03-18T06:01:34;95287.75;;;1.06;100.00
24280;BME280;12395;42.808;23.408;2023-03-18T06:03:59;95296.38;;;1.26;100.00
24280;BME280;12395;42.808;23.408;2023-03-18T06:06:25;95296.75;;;1.40;100.00
24280;BME280;12395;42.808;23.408;2023-03-18T06:08:51;95293.38;;;1.58;100.00
24280;BME280;12395;42.808;23.408;2023-03-18T06:11:17;95290.28;;;1.72;100.00
24280;BME280;12395;42.808;23.408;2023-03-18T06:13:42;95299.28;;;1.87;100.00
24280;BME280;12395;42.808;23.408;2023-03-18T06:16:09;95292.94;;;1.99;100.00
24280;BME280;12395;42.808;23.408;2023-03-18T06:18:34;95295.72;;;2.15;99.81
24280;BME280;12395;42.808;23.408;2023-03-18T06:21:00;95290.97;;;2.28;99.57
24280;BME280;12395;42.808;23.408;2023-03-18T06:23:25;95291.09;;;2.44;98.84
24280;BME280;12395;42.808;23.408;2023-03-18T06:25:51;95289.50;;;2.61;98.40
24280;BME280;12395;42.808;23.408;2023-03-18T06:28:16;95292.06;;;2.78;97.47
24280;BME280;12395;42.808;23.408;2023-03-18T06:30:42;95288.63;;;2.95;96.14
24280;BME280;12395;42.808;23.408;2023-03-18T06:33:08;95292.66;;;3.07;96.10
24280;BME280;12395;42.808;23.408;2023-03-18T06:35:33;95283.63;;;3.28;96.23
24280;BME280;12395;42.808;23.408;2023-03-18T06:37:59;95281.78;;;3.46;95.87
24280;BME280;12395;42.808;23.408;2023-03-18T06:40:25;95284.84;;;3.67;94.43
24280;BME280;12395;42.808;23.408;2023-03-18T06:42:50;95284.63;;;3.86;92.72
24280;BME280;12395;42.808;23.408;2023-03-18T06:45:16;95281.38;;;4.00;91.35
24280;BME280;12395;42.808;23.408;2023-03-18T06:47:41;95281.28;;;4.10;90.39
24280;BME280;12395;42.808;23.408;2023-03-18T06:50:07;95282.28;;;4.17;89.74
24280;BME280;12395;42.808;23.408;2023-03-18T06:52:32;95283.91;;;4.18;88.57
24280;BME280;12395;42.808;23.408;2023-03-18T06:54:58;95279.81;;;4.15;88.82
24280;BME280;12395;42.808;23.408;2023-03-18T06:57:23;95279.41;;;4.02;89.65
24280;BME280;12395;42.808;23.408;2023-03-18T06:59:48;95279.56;;;3.92;91.10
24280;BME280;12395;42.808;23.408;2023-03-18T07:02:14;95278.88;;;3.82;91.42
24280;BME280;12395;42.808;23.408;2023-03-18T07:04:40;95272.25;;;3.70;91.77
24280;BME280;12395;42.808;23.408;2023-03-18T07:07:05;95275.13;;;3.59;92.13
24280;BME280;12395;42.808;23.408;2023-03-18T07:09:31;95278.72;;;3.50;93.28
24280;BME280;12395;42.808;23.408;2023-03-18T07:11:57;95282.28;;;3.49;94.53
24280;BME280;12395;42.808;23.408;2023-03-18T07:14:22;95280.66;;;3.48;95.35
24280;BME280;12395;42.808;23.408;2023-03-18T07:16:48;95277.19;;;3.40;95.90
24280;BME280;12395;42.808;23.408;2023-03-18T07:19:14;95272.06;;;3.38;96.64
24280;BME280;12395;42.808;23.408;2023-03-18T07:21:40;95274.34;;;3.33;97.26
24280;BME280;12395;42.808;23.408;2023-03-18T07:24:07;95276.13;;;3.33;97.10
24280;BME280;12395;42.808;23.408;2023-03-18T07:26:32;95273.97;;;3.28;97.53
24280;BME280;12395;42.808;23.408;2023-03-18T07:28:57;95270.50;;;3.20;96.89
24280;BME280;12395;42.808;23.408;2023-03-18T07:31:22;95279.34;;;3.19;96.62
24280;BME280;12395;42.808;23.408;2023-03-18T07:33:49;95275.44;;;3.23;95.85
24280;BME280;12395;42.808;23.408;2023-03-18T07:36:14;95276.22;;;3.23;95.52
24280;BME280;12395;42.808;23.408;2023-03-18T07:38:39;95275.09;;;3.26;95.85
24280;BME280;12395;42.808;23.408;2023-03-18T07:41:05;95278.25;;;3.29;95.00
24280;BME280;12395;42.808;23.408;2023-03-18T07:43:31;95273.16;;;3.28;94.89
24280;BME280;12395;42.808;23.408;2023-03-18T07:45:56;95276.81;;;3.35;96.19
24280;BME280;12395;42.808;23.408;2023-03-18T07:48:22;95273.28;;;3.44;96.42
24280;BME280;12395;42.808;23.408;2023-03-18T07:50:48;95280.34;;;3.51;97.03
24280;BME280;12395;42.808;23.408;2023-03-18T07:53:13;95281.88;;;3.62;97.26
24280;BME280;12395;42.808;23.408;2023-03-18T07:55:38;95277.34;;;3.72;97.74
24280;BME280;12395;42.808;23.408;2023-03-18T07:58:04;95281.13;;;3.77;94.13
24280;BME280;12395;42.808;23.408;2023-03-18T08:00:31;95283.28;;;3.82;92.69
24280;BME280;12395;42.808;23.408;2023-03-18T08:02:57;95279.88;;;3.89;90.83
24280;BME280;12395;42.808;23.408;2023-03-18T08:05:22;95280.72;;;3.98;89.13
24280;BME280;12395;42.808;23.408;2023-03-18T08:07:47;95272.91;;;4.06;88.81
24280;BME280;12395;42.808;23.408;2023-03-18T08:10:13;95274.25;;;4.18;89.63
24280;BME280;12395;42.808;23.408;2023-03-18T08:12:39;95275.75;;;4.29;89.94
24280;BME280;12395;42.808;23.408;2023-03-18T08:15:04;95279.72;;;4.41;88.04
24280;BME280;12395;42.808;23.408;2023-03-18T08:17:31;95271.38;;;4.53;85.21
24280;BME280;12395;42.808;23.408;2023-03-18T08:19:56;95278.94;;;4.64;83.84
24280;BME280;12395;42.808;23.408;2023-03-18T08:22:22;95283.22;;;4.74;84.06
24280;BME280;12395;42.808;23.408;2023-03-18T08:24:49;95280.09;;;4.86;83.92
24280;BME280;12395;42.808;23.408;2023-03-18T08:27:14;95282.91;;;5.01;83.02
24280;BME280;12395;42.808;23.408;2023-03-18T08:29:40;95280.44;;;5.23;82.95
24280;BME280;12395;42.808;23.408;2023-03-18T08:32:05;95294.88;;;5.52;78.66
24280;BME280;12395;42.808;23.408;2023-03-18T08:34:31;95291.66;;;5.88;77.39
24280;BME280;12395;42.808;23.408;2023-03-18T08:36:57;95295.47;;;6.24;77.03
24280;BME280;12395;42.808;23.408;2023-03-18T08:39:22;95286.56;;;6.64;77.87
24280;BME280;12395;42.808;23.408;2023-03-18T08:41:47;95296.81;;;6.82;73.47
24280;BME280;12395;42.808;23.408;2023-03-18T08:44:13;95288.63;;;6.77;73.04
24280;BME280;12395;42.808;23.408;2023-03-18T08:46:39;95296.50;;;6.77;71.17
24280;BME280;12395;42.808;23.408;2023-03-18T08:49:05;95295.31;;;6.57;69.73
24280;BME280;12395;42.808;23.408;2023-03-18T08:51:31;95305.88;;;6.49;70.92
24280;BME280;12395;42.808;23.408;2023-03-18T08:53:57;95302.63;;;6.69;72.79
24280;BME280;12395;42.808;23.408;2023-03-18T08:56:22;95308.13;;;6.90;72.71
24280;BME280;12395;42.808;23.408;2023-03-18T08:58:48;95311.47;;;7.07;71.03
24280;BME280;12395;42.808;23.408;2023-03-18T09:01:13;95313.97;;;7.23;70.61
24280;BME280;12395;42.808;23.408;2023-03-18T09:03:39;95311.38;;;7.38;67.97
24280;BME280;12395;42.808;23.408;2023-03-18T09:06:04;95312.78;;;7.48;67.38
24280;BME280;12395;42.808;23.408;2023-03-18T09:08:30;95309.25;;;7.56;67.72
24280;BME280;12395;42.808;23.408;2023-03-18T09:10:56;95305.34;;;7.66;66.82
24280;BME280;12395;42.808;23.408;2023-03-18T09:13:22;95301.81;;;7.74;67.41
24280;BME280;12395;42.808;23.408;2023-03-18T09:15:47;95311.66;;;7.95;66.47
24280;BME280;12395;42.808;23.408;2023-03-18T09:18:13;95304.66;;;8.02;64.37
24280;BME280;12395;42.808;23.408;2023-03-18T09:20:39;95313.03;;;8.20;64.10
24280;BME280;12395;42.808;23.408;2023-03-18T09:23:05;95302.00;;;8.45;64.51
24280;BME280;12395;42.808;23.408;2023-03-18T09:25:30;95302.72;;;8.54;64.92
24280;BME280;12395;42.808;23.408;2023-03-18T09:27:56;95293.59;;;8.71;65.78
24280;BME280;12395;42.808;23.408;2023-03-18T09:30:21;95302.00;;;8.96;65.72
24280;BME280;12395;42.808;23.408;2023-03-18T09:32:46;95296.38;;;9.26;63.38
24280;BME280;12395;42.808;23.408;2023-03-18T09:35:12;95298.63;;;9.51;60.77
24280;BME280;12395;42.808;23.408;2023-03-18T09:37:38;95298.94;;;9.41;59.77
24280;BME280;12395;42.808;23.408;2023-03-18T09:40:04;95295.75;;;9.46;61.92
24280;BME280;12395;42.808;23.408;2023-03-18T09:45:01;95301.34;;;9.85;58.90
24280;BME280;12395;42.808;23.408;2023-03-18T09:47:41;95295.63;;;10.09;56.31
24280;BME280;12395;42.808;23.408;2023-03-18T09:52:43;95300.88;;;10.37;53.03
24280;BME280;12395;42.808;23.408;2023-03-18T09:55:22;95290.44;;;10.29;52.25
24280;BME280;12395;42.808;23.408;2023-03-18T09:57:50;95289.78;;;10.14;53.73
24280;BME280;12395;42.808;23.408;2023-03-18T10:00:36;95284.84;;;10.11;52.60
24280;BME280;12395;42.808;23.408;2023-03-18T10:03:17;95290.81;;;10.19;50.95
24280;BME280;12395;42.808;23.408;2023-03-18T10:05:51;95294.41;;;9.84;53.22
24280;BME280;12395;42.808;23.408;2023-03-18T10:11:03;95290.47;;;9.24;54.40
24280;BME280;12395;42.808;23.408;2023-03-18T10:13:32;95292.41;;;8.95;51.86
24280;BME280;12395;42.808;23.408;2023-03-18T10:16:01;95288.63;;;8.62;49.56
24280;BME280;12395;42.808;23.408;2023-03-18T10:18:30;95298.72;;;8.58;49.70
24280;BME280;12395;42.808;23.408;2023-03-18T10:23:48;95291.00;;;7.84;53.81
24280;BME280;12395;42.808;23.408;2023-03-18T10:28:54;95293.63;;;7.84;55.94
24280;BME280;12395;42.808;23.408;2023-03-18T10:34:15;95288.56;;;7.97;53.19
24280;BME280;12395;42.808;23.408;2023-03-18T10:36:54;95300.13;;;8.10;53.27
24280;BME280;12395;42.808;23.408;2023-03-18T10:39:22;95301.28;;;8.22;49.84
24280;BME280;12395;42.808;23.408;2023-03-18T10:41:51;95296.13;;;8.29;51.12
24280;BME280;12395;42.808;23.408;2023-03-18T10:44:28;95301.84;;;8.32;48.62
24280;BME280;12395;42.808;23.408;2023-03-18T10:49:33;95304.22;;;8.27;45.74
24280;BME280;12395;42.808;23.408;2023-03-18T10:52:05;95310.31;;;8.28;45.23
24280;BME280;12395;42.808;23.408;2023-03-18T10:54:36;95292.44;;;8.59;47.46
24280;BME280;12395;42.808;23.408;2023-03-18T10:57:04;95290.47;;;8.82;46.26
24280;BME280;12395;42.808;23.408;2023-03-18T10:59:29;95294.00;;;8.89;45.17
24280;BME280;12395;42.808;23.408;2023-03-18T11:02:05;95294.06;;;8.96;46.07
24280;BME280;12395;42.808;23.408;2023-03-18T11:04:42;95292.78;;;8.92;46.94
24280;BME280;12395;42.808;23.408;2023-03-18T11:07:17;95294.47;;;8.78;46.31
24280;BME280;12395;42.808;23.408;2023-03-18T11:09:44;95294.22;;;8.73;46.70
24280;BME280;12395;42.808;23.408;2023-03-18T11:12:25;95287.28;;;8.36;47.14
24280;BME280;12395;42.808;23.408;2023-03-18T11:14:52;95282.19;;;8.35;47.44
24280;BME280;12395;42.808;23.408;2023-03-18T11:17:26;95275.56;;;8.60;47.80
24280;BME280;12395;42.808;23.408;2023-03-18T11:20:03;95274.97;;;9.00;46.76
24280;BME280;12395;42.808;23.408;2023-03-18T11:22:35;95274.22;;;9.49;50.54
24280;BME280;12395;42.808;23.408;2023-03-18T11:27:27;95280.75;;;9.53;46.31
24280;BME280;12395;42.808;23.408;2023-03-18T11:29:55;95283.09;;;8.99;43.99
24280;BME280;12395;42.808;23.408;2023-03-18T11:32:26;95272.94;;;8.60;45.32
24280;BME280;12395;42.808;23.408;2023-03-18T11:34:57;95280.81;;;8.39;46.56
24280;BME280;12395;42.808;23.408;2023-03-18T11:37:30;95273.63;;;8.33;47.46
24280;BME280;12395;42.808;23.408;2023-03-18T11:42:31;95282.97;;;8.50;46.62
24280;BME280;12395;42.808;23.408;2023-03-18T11:44:58;95279.53;;;8.35;45.91
24280;BME280;12395;42.808;23.408;2023-03-18T11:47:26;95277.25;;;8.32;47.13
24280;BME280;12395;42.808;23.408;2023-03-18T11:49:54;95267.44;;;8.26;45.92
24280;BME280;12395;42.808;23.408;2023-03-18T11:59:54;95262.09;;;8.70;44.57
24280;BME280;12395;42.808;23.408;2023-03-18T12:02:25;95253.06;;;8.64;44.62
24280;BME280;12395;42.808;23.408;2023-03-18T12:04:59;95254.94;;;8.85;45.32
24280;BME280;12395;42.808;23.408;2023-03-18T12:07:37;95255.19;;;9.11;45.32
24280;BME280;12395;42.808;23.408;2023-03-18T12:10:52;95263.16;;;9.39;47.58
24280;BME280;12395;42.808;23.408;2023-03-18T12:15:30;95256.03;;;9.67;43.97
24280;BME280;12395;42.808;23.408;2023-03-18T12:20:47;95247.50;;;8.38;43.31
24280;BME280;12395;42.808;23.408;2023-03-18T12:39:19;95256.25;;;8.74;44.97
24280;BME280;12395;42.808;23.408;2023-03-18T12:41:54;95243.53;;;8.84;45.28
24280;BME280;12395;42.808;23.408;2023-03-18T12:47:06;95246.50;;;8.96;43.74
24280;BME280;12395;42.808;23.408;2023-03-18T12:54:47;95247.28;;;9.39;40.73
24280;BME280;12395;42.808;23.408;2023-03-18T12:57:25;95235.88;;;9.38;40.74
24280;BME280;12395;42.808;23.408;2023-03-18T12:59:56;95241.50;;;9.28;39.56
24280;BME280;12395;42.808;23.408;2023-03-18T13:02:37;95245.53;;;9.24;40.75
24280;BME280;12395;42.808;23.408;2023-03-18T13:05:05;95235.72;;;9.18;40.67
24280;BME280;12395;42.808;23.408;2023-03-18T13:07:45;95233.00;;;9.33;39.94
24280;BME280;12395;42.808;23.408;2023-03-18T13:10:19;95248.16;;;9.24;41.22
24280;BME280;12395;42.808;23.408;2023-03-18T13:12:44;95237.91;;;9.36;41.62
24280;BME280;12395;42.808;23.408;2023-03-18T13:17:55;95243.19;;;9.36;41.70
24280;BME280;12395;42.808;23.408;2023-03-18T13:22:54;95239.28;;;9.04;42.39
24280;BME280;12395;42.808;23.408;2023-03-18T13:25:43;95247.19;;;9.25;42.54
24280;BME280;12395;42.808;23.408;2023-03-18T13:38:27;95242.75;;;9.32;39.31
24280;BME280;12395;42.808;23.408;2023-03-18T13:43:25;95244.09;;;9.50;38.12
24280;BME280;12395;42.808;23.408;2023-03-18T13:45:52;95237.56;;;9.46;39.44
24280;BME280;12395;42.808;23.408;2023-03-18T13:48:28;95234.28;;;9.44;39.31
24280;BME280;12395;42.808;23.408;2023-03-18T13:50:55;95229.81;;;9.44;40.64
24280;BME280;12395;42.808;23.408;2023-03-18T14:03:51;95218.59;;;9.70;39.68
24280;BME280;12395;42.808;23.408;2023-03-18T14:08:46;95222.59;;;9.87;38.10
24280;BME280;12395;42.808;23.408;2023-03-18T14:13:44;95228.25;;;9.84;37.79
24280;BME280;12395;42.808;23.408;2023-03-18T14:16:10;95219.94;;;9.87;37.87
24280;BME280;12395;42.808;23.408;2023-03-18T14:18:36;95214.25;;;9.90;37.71
24280;BME280;12395;42.808;23.408;2023-03-18T14:21:03;95220.56;;;9.89;37.82
24280;BME280;12395;42.808;23.408;2023-03-18T14:23:33;95221.06;;;9.71;37.98
24280;BME280;12395;42.808;23.408;2023-03-18T14:26:02;95226.19;;;9.52;39.38